East Franklin, Vermont
Current Conditions -  °F | °C
As of 4:55 PM on Saturday 25 Oct 2014 (Local Time) from KFSO Reporting Station
Light Rain Light Rain  
Wind Chill: 55°   Ceiling: 6500
Heat Index: 55°   Visibility: 10mi
Dew Point: 44°   Wind: 6mph
Humidity: 66%   Direction: 180°S
Pressure: 29.52"   Gusts: NA
Location:  44.9656°N, 72.8975°W
Report Text: KFSO 252055Z AUTO 18005KT 10SM -RA SCT046 BKN065 OVC075 13/07 A2952 RMK AO2 T01270065
Loading
Personal Weather Stations






























Interactive Weather Map New forecast layout! Learn more

10-Day Weather Forecast

Advertisements
Track Severe Weather on mobile